createdAt,value
2017-04-21T00:00:02.036Z,995.8
2017-04-21T00:01:04.394Z,995.8
2017-04-21T00:02:06.797Z,995.8
2017-04-21T00:03:09.230Z,995.9
2017-04-21T00:04:11.652Z,995.8
2017-04-21T00:05:14.039Z,995.8
2017-04-21T00:06:16.425Z,995.8
2017-04-21T00:07:18.896Z,995.8
2017-04-21T00:08:21.310Z,995.8
2017-04-21T00:09:23.754Z,995.7
2017-04-21T00:10:26.163Z,995.8
2017-04-21T00:11:28.548Z,995.7
2017-04-21T00:12:31.005Z,995.8
2017-04-21T00:13:33.427Z,995.8
2017-04-21T00:14:35.840Z,995.7
2017-04-21T00:15:38.261Z,995.8
2017-04-21T00:16:40.712Z,995.7
2017-04-21T00:17:43.186Z,995.6
2017-04-21T00:18:45.604Z,995.7
2017-04-21T00:19:48.061Z,995.7
2017-04-21T00:20:50.488Z,995.6
2017-04-21T00:21:53.525Z,995.6
2017-04-21T00:22:55.905Z,995.6
2017-04-21T00:23:58.373Z,995.6
2017-04-21T00:25:00.810Z,995.6
2017-04-21T00:26:03.322Z,995.5
2017-04-21T00:27:05.728Z,995.5
2017-04-21T00:28:08.132Z,995.6
2017-04-21T00:29:10.622Z,995.5
2017-04-21T00:30:13.588Z,995.5
2017-04-21T00:31:16.012Z,995.5
2017-04-21T00:32:19.348Z,995.5
2017-04-21T00:33:21.730Z,995.5
2017-04-21T00:34:24.105Z,995.5
2017-04-21T00:35:26.556Z,995.4
2017-04-21T00:36:28.932Z,995.4
2017-04-21T00:37:31.430Z,995.5
2017-04-21T00:38:33.806Z,995.4
2017-04-21T00:39:36.255Z,995.4
2017-04-21T00:40:38.717Z,995.5
2017-04-21T00:41:41.155Z,995.4
2017-04-21T00:42:44.052Z,995.4
2017-04-21T00:43:46.918Z,995.4
2017-04-21T00:44:49.392Z,995.4
2017-04-21T00:45:51.906Z,995.4
2017-04-21T00:46:54.346Z,995.4
2017-04-21T00:47:56.880Z,995.4
2017-04-21T00:48:59.367Z,995.4
2017-04-21T00:50:02.097Z,995.3
2017-04-21T00:51:04.533Z,995.3
2017-04-21T00:52:06.889Z,995.3
2017-04-21T00:53:09.254Z,995.2
2017-04-21T00:54:11.619Z,995.3
2017-04-21T00:55:14.006Z,995.3
2017-04-21T00:56:16.438Z,995.3
2017-04-21T00:57:19.345Z,995.3
2017-04-21T00:58:21.704Z,995.3
2017-04-21T00:59:24.094Z,995.3
2017-04-21T01:00:26.524Z,995.3
2017-04-21T01:01:29.001Z,995.3
2017-04-21T01:02:31.360Z,995.3
2017-04-21T01:03:33.767Z,995.3
2017-04-21T01:04:36.153Z,995.2
2017-04-21T01:05:38.566Z,995.2
2017-04-21T01:06:41.117Z,995.2
2017-04-21T01:07:43.479Z,995.2
2017-04-21T01:08:45.896Z,995.2
2017-04-21T01:09:49.089Z,995.3
2017-04-21T01:10:51.490Z,995.2
2017-04-21T01:11:53.881Z,995.2
2017-04-21T01:12:56.285Z,995.2
2017-04-21T01:13:58.697Z,995.2
2017-04-21T01:15:01.097Z,995.2
2017-04-21T01:16:03.558Z,995.2
2017-04-21T01:17:05.917Z,995.2
2017-04-21T01:18:08.307Z,995.2
2017-04-21T01:19:10.753Z,995.2
2017-04-21T01:20:13.160Z,995.2
2017-04-21T01:21:15.618Z,995.2
2017-04-21T01:22:18.101Z,995.2
2017-04-21T01:23:20.494Z,995.2
2017-04-21T01:24:22.905Z,995.2
2017-04-21T01:25:25.290Z,995
2017-04-21T01:26:27.745Z,995.2
2017-04-21T01:27:30.188Z,995.2
2017-04-21T01:28:32.636Z,995.2
2017-04-21T01:29:35.008Z,995.2
2017-04-21T01:30:37.388Z,995.2
2017-04-21T01:31:39.824Z,995.2
2017-04-21T01:32:42.238Z,995.3
2017-04-21T01:33:44.630Z,995
2017-04-21T01:34:47.047Z,995.2
2017-04-21T01:35:49.425Z,995.3
2017-04-21T01:36:52.554Z,995.2
2017-04-21T01:37:54.971Z,995.2
2017-04-21T01:38:57.388Z,995.2
2017-04-21T01:39:59.789Z,995.2
2017-04-21T01:41:02.185Z,995.2
2017-04-21T01:42:04.582Z,995.2
2017-04-21T01:43:06.961Z,995.2
2017-04-21T01:44:09.348Z,995.2
2017-04-21T01:45:11.688Z,995.1
2017-04-21T01:46:14.069Z,995.1
2017-04-21T01:47:16.545Z,995.1
2017-04-21T01:48:18.967Z,995.1
2017-04-21T01:49:22.088Z,995.1
2017-04-21T01:50:24.474Z,995.1
2017-04-21T01:51:26.814Z,995.1
2017-04-21T01:52:29.216Z,995.1
2017-04-21T01:53:31.631Z,995.1
2017-04-21T01:54:34.418Z,995.1
2017-04-21T01:55:36.789Z,995.1
2017-04-21T01:56:39.182Z,995.1
2017-04-21T01:57:41.562Z,995.1
2017-04-21T01:58:43.976Z,995.1
2017-04-21T01:59:46.341Z,995.1
2017-04-21T02:00:48.797Z,995.1
2017-04-21T02:01:51.144Z,995
2017-04-21T02:02:53.554Z,995
2017-04-21T02:03:55.940Z,995
2017-04-21T02:04:58.380Z,995.1
2017-04-21T02:06:00.819Z,995.1
2017-04-21T02:07:03.232Z,995.1
2017-04-21T02:08:05.662Z,995
2017-04-21T02:09:08.115Z,995.1
2017-04-21T02:10:10.585Z,995
2017-04-21T02:11:13.041Z,995
2017-04-21T02:12:15.414Z,995
2017-04-21T02:13:17.801Z,995
2017-04-21T02:14:20.172Z,995
2017-04-21T02:15:22.564Z,995
2017-04-21T02:16:24.984Z,995
2017-04-21T02:17:27.359Z,995
2017-04-21T02:18:29.793Z,995
2017-04-21T02:19:32.272Z,995
2017-04-21T02:20:34.845Z,994.9
2017-04-21T02:21:37.344Z,995
2017-04-21T02:22:39.749Z,994.9
2017-04-21T02:23:42.186Z,994.9
2017-04-21T02:24:44.633Z,994.9
2017-04-21T02:25:47.212Z,994.9
2017-04-21T02:26:49.594Z,994.9
2017-04-21T02:27:51.973Z,994.9
2017-04-21T02:28:54.347Z,994.9
2017-04-21T02:29:56.750Z,994.9
2017-04-21T02:30:59.671Z,994.9
2017-04-21T02:32:02.116Z,994.9
2017-04-21T02:33:04.489Z,994.8
2017-04-21T02:34:06.875Z,994.6
2017-04-21T02:35:09.323Z,994.8
2017-04-21T02:36:11.749Z,994.8
2017-04-21T02:37:14.136Z,994.5
2017-04-21T02:38:16.527Z,994.7
2017-04-21T02:39:18.944Z,994.8
2017-04-21T02:40:21.405Z,994.7
2017-04-21T02:41:23.771Z,994.7
2017-04-21T02:42:26.146Z,994.7
2017-04-21T02:43:28.549Z,994.7
2017-04-21T02:44:30.895Z,994.7
2017-04-21T02:45:33.301Z,994.7
2017-04-21T02:46:35.647Z,994.7
2017-04-21T02:47:38.043Z,994.7
2017-04-21T02:48:40.471Z,994.6
2017-04-21T02:49:43.157Z,994.7
2017-04-21T02:50:45.616Z,994.6
2017-04-21T02:51:48.017Z,994.6
2017-04-21T02:52:51.450Z,994.6
2017-04-21T02:53:53.909Z,994.6
2017-04-21T02:54:56.314Z,994.6
2017-04-21T02:55:58.775Z,994.7
2017-04-21T02:57:01.162Z,994.6
2017-04-21T02:58:03.572Z,994.6
2017-04-21T02:59:05.981Z,994.7
2017-04-21T03:00:08.364Z,994.7
2017-04-21T03:01:10.751Z,994.7
2017-04-21T03:02:13.157Z,994.7
2017-04-21T03:03:15.532Z,994.6
2017-04-21T03:04:17.946Z,994.7
2017-04-21T03:05:20.347Z,994.6
2017-04-21T03:06:22.726Z,994.6
2017-04-21T03:07:25.087Z,994.6
2017-04-21T03:08:27.491Z,994.6
2017-04-21T03:09:29.924Z,994.6
2017-04-21T03:10:32.276Z,994.6
2017-04-21T03:11:34.644Z,994.5
2017-04-21T03:12:37.022Z,994.6
2017-04-21T03:13:39.404Z,994.6
2017-04-21T03:14:41.795Z,994.5
2017-04-21T03:15:44.197Z,994.5
2017-04-21T03:16:46.581Z,994.6
2017-04-21T03:17:48.989Z,994.5
2017-04-21T03:18:51.431Z,994.5
2017-04-21T03:19:53.918Z,994.6
2017-04-21T03:20:56.361Z,994.5
2017-04-21T03:21:58.774Z,994.5
2017-04-21T03:23:01.238Z,994.5
2017-04-21T03:24:03.661Z,994.5
2017-04-21T03:25:06.090Z,994.6
2017-04-21T03:26:08.495Z,994.5
2017-04-21T03:27:10.914Z,994.5
2017-04-21T03:28:13.426Z,994.5
2017-04-21T03:29:15.814Z,994.6
2017-04-21T03:30:18.215Z,994.5
2017-04-21T03:31:20.600Z,994.5
2017-04-21T03:32:23.009Z,994.5
2017-04-21T03:33:25.476Z,994.6
2017-04-21T03:34:28.014Z,994.6
2017-04-21T03:35:30.412Z,994.6
2017-04-21T03:36:32.837Z,994.5
2017-04-21T03:37:35.293Z,994.5
2017-04-21T03:38:37.693Z,994.5
2017-04-21T03:39:40.088Z,994.6
2017-04-21T03:40:42.520Z,994.6
2017-04-21T03:41:44.936Z,994.6
2017-04-21T03:42:47.340Z,994.6
2017-04-21T03:43:49.747Z,994.5
2017-04-21T03:44:52.204Z,994.5
2017-04-21T03:45:54.628Z,994.5
2017-04-21T03:46:57.050Z,994.5
2017-04-21T03:47:59.505Z,994.5
2017-04-21T03:49:01.871Z,994.5
2017-04-21T03:50:04.283Z,994.5
2017-04-21T03:51:06.721Z,994.5
2017-04-21T03:52:09.180Z,994.4
2017-04-21T03:53:11.599Z,994.4
2017-04-21T03:54:13.988Z,994.5
2017-04-21T03:55:16.350Z,994.4
2017-04-21T03:56:18.816Z,994.4
2017-04-21T03:57:21.181Z,994.2
2017-04-21T03:58:23.552Z,994.4
2017-04-21T03:59:25.906Z,994.4
2017-04-21T04:00:28.312Z,994.5
2017-04-21T04:01:30.721Z,994.4
2017-04-21T04:02:33.140Z,994.4
2017-04-21T04:03:35.567Z,994.4
2017-04-21T04:04:37.934Z,994.4
2017-04-21T04:05:40.353Z,994.4
2017-04-21T04:06:42.744Z,994.3
2017-04-21T04:07:45.105Z,994.4
2017-04-21T04:08:47.516Z,994.3
2017-04-21T04:09:49.914Z,994.4
2017-04-21T04:10:52.305Z,994.4
2017-04-21T04:11:54.725Z,994.4
2017-04-21T04:12:57.116Z,994.3
2017-04-21T04:13:59.652Z,994.3
2017-04-21T04:15:02.438Z,994.3
2017-04-21T04:16:04.869Z,994.4
2017-04-21T04:17:07.201Z,994.3
2017-04-21T04:18:09.592Z,994.3
2017-04-21T04:19:12.076Z,994.3
2017-04-21T04:20:14.423Z,994.3
2017-04-21T04:21:16.866Z,994.3
2017-04-21T04:22:19.244Z,994.3
2017-04-21T04:23:21.679Z,994.3
2017-04-21T04:24:24.039Z,994.3
2017-04-21T04:25:26.489Z,994.4
2017-04-21T04:26:28.883Z,994.3
2017-04-21T04:27:31.325Z,994.3
2017-04-21T04:28:33.690Z,994.3
2017-04-21T04:29:36.123Z,994.2
2017-04-21T04:30:38.554Z,994.3
2017-04-21T04:31:41.015Z,994.3
2017-04-21T04:32:44.453Z,994.3
2017-04-21T04:33:47.795Z,994.3
2017-04-21T04:34:50.241Z,994.3
2017-04-21T04:35:52.694Z,994.3
2017-04-21T04:36:55.762Z,994.2
2017-04-21T04:37:58.176Z,994.3
2017-04-21T04:39:00.541Z,994.3
2017-04-21T04:40:03.053Z,994.3
2017-04-21T04:41:05.505Z,994.3
2017-04-21T04:42:07.846Z,994.3
2017-04-21T04:43:10.225Z,994.3
2017-04-21T04:44:12.637Z,994.3
2017-04-21T04:45:15.099Z,994.2
2017-04-21T04:46:17.547Z,994.3
2017-04-21T04:47:19.986Z,994.3
2017-04-21T04:48:22.544Z,994.3
2017-04-21T04:49:25.383Z,994.3
2017-04-21T04:50:27.825Z,994.3
2017-04-21T04:51:30.210Z,994.3
2017-04-21T04:52:32.630Z,994.3
2017-04-21T04:53:35.022Z,994.3
2017-04-21T04:54:37.583Z,994.3
2017-04-21T04:55:40.037Z,994.4
2017-04-21T04:56:42.414Z,994.3
2017-04-21T04:57:45.522Z,994.4
2017-04-21T04:58:48.030Z,994.4
2017-04-21T04:59:50.419Z,994.3
2017-04-21T05:00:52.842Z,994.3
2017-04-21T05:01:55.255Z,994.3
2017-04-21T05:02:57.659Z,994.3
2017-04-21T05:04:00.085Z,994.2
2017-04-21T05:05:02.551Z,994.2
2017-04-21T05:06:05.070Z,994.2
2017-04-21T05:07:07.495Z,994.3
2017-04-21T05:08:10.018Z,994.3
2017-04-21T05:09:12.449Z,994.3
2017-04-21T05:10:14.951Z,994.2
2017-04-21T05:11:17.355Z,994.2
2017-04-21T05:12:19.758Z,994.3
2017-04-21T05:13:22.250Z,994.2
2017-04-21T05:14:24.633Z,994.2
2017-04-21T05:15:26.989Z,994.2
2017-04-21T05:16:29.664Z,994.3
2017-04-21T05:17:32.173Z,994.3
2017-04-21T05:18:34.721Z,994.3
2017-04-21T05:19:37.188Z,994.2
2017-04-21T05:20:39.674Z,994.3
2017-04-21T05:21:42.123Z,994.3
2017-04-21T05:22:44.742Z,994.2
2017-04-21T05:23:47.851Z,994
2017-04-21T05:24:50.312Z,994.2
2017-04-21T05:25:52.804Z,994.2
2017-04-21T05:26:55.346Z,994.1
2017-04-21T05:27:58.392Z,994.1
2017-04-21T05:29:00.900Z,994.2
2017-04-21T05:30:03.955Z,994.2
2017-04-21T05:31:06.423Z,994.2
2017-04-21T05:32:09.058Z,994.2
2017-04-21T05:33:13.147Z,994.1
2017-04-21T05:34:15.682Z,994.2
2017-04-21T05:35:18.110Z,994.2
2017-04-21T05:36:20.566Z,994.2
2017-04-21T05:37:23.397Z,994.1
2017-04-21T05:38:25.866Z,994.2
2017-04-21T05:39:29.142Z,994.1
2017-04-21T05:40:31.503Z,993.9
2017-04-21T05:41:33.895Z,994.1
2017-04-21T05:42:36.288Z,994.1
2017-04-21T05:43:38.786Z,994.1
2017-04-21T05:44:41.185Z,993.8
2017-04-21T05:45:43.581Z,994.1
2017-04-21T05:46:46.114Z,994
2017-04-21T05:47:48.528Z,993.8
2017-04-21T05:48:50.945Z,994
2017-04-21T05:49:53.354Z,993.9
2017-04-21T05:50:56.469Z,993.9
2017-04-21T05:51:59.899Z,993.9
2017-04-21T05:53:02.454Z,993.8
2017-04-21T05:54:04.852Z,993.8
2017-04-21T05:55:07.278Z,993.7
2017-04-21T05:56:09.762Z,993.9
2017-04-21T05:57:12.133Z,993.8
2017-04-21T05:58:14.637Z,993.8
2017-04-21T05:59:17.058Z,993.6
2017-04-21T06:00:19.406Z,993.9
2017-04-21T06:01:21.854Z,993.9
2017-04-21T06:02:24.537Z,993.9
2017-04-21T06:03:27.110Z,993.9
2017-04-21T06:04:29.642Z,993.9
2017-04-21T06:05:32.042Z,993.9
2017-04-21T06:06:34.570Z,993.9
2017-04-21T06:07:36.990Z,993.9
2017-04-21T06:08:39.411Z,993.8
2017-04-21T06:09:41.930Z,993.8
2017-04-21T06:10:44.525Z,993.9
2017-04-21T06:11:46.997Z,993.8
2017-04-21T06:12:49.613Z,993.8
2017-04-21T06:13:52.084Z,993.8
2017-04-21T06:14:54.507Z,993.8
2017-04-21T06:15:56.939Z,993.8
2017-04-21T06:17:00.497Z,993.8
2017-04-21T06:18:02.951Z,993.9
2017-04-21T06:19:05.471Z,993.9
2017-04-21T06:20:07.924Z,994
2017-04-21T06:21:10.514Z,994
2017-04-21T06:22:12.967Z,994
2017-04-21T06:23:15.419Z,993.9
2017-04-21T06:24:17.883Z,994
2017-04-21T06:25:20.584Z,994.1
2017-04-21T06:26:23.002Z,994
2017-04-21T06:27:25.644Z,994
2017-04-21T06:28:28.196Z,994
2017-04-21T06:29:30.712Z,994
2017-04-21T06:30:33.177Z,994
2017-04-21T06:31:36.348Z,994
2017-04-21T06:32:39.127Z,994
2017-04-21T06:33:43.629Z,994.1
2017-04-21T06:34:46.157Z,993.8
2017-04-21T06:35:48.706Z,994
2017-04-21T06:36:51.171Z,994
2017-04-21T06:37:54.593Z,994
2017-04-21T06:38:57.315Z,994
2017-04-21T06:39:59.863Z,994
2017-04-21T06:41:02.405Z,994
2017-04-21T06:42:05.030Z,994
2017-04-21T06:43:07.421Z,994
2017-04-21T06:44:09.938Z,994
2017-04-21T06:45:12.387Z,994
2017-04-21T06:46:14.922Z,994
2017-04-21T06:47:17.503Z,994
2017-04-21T06:48:19.990Z,994.1
2017-04-21T06:49:22.483Z,993.9
2017-04-21T06:50:24.937Z,994
2017-04-21T06:51:27.508Z,994
2017-04-21T06:52:29.996Z,993.9
2017-04-21T06:53:32.428Z,993.9
2017-04-21T06:54:35.858Z,993.8
2017-04-21T06:55:38.902Z,993.9
2017-04-21T06:56:41.480Z,993.9
2017-04-21T06:57:44.648Z,993.8
2017-04-21T06:58:47.108Z,993.8
2017-04-21T06:59:49.618Z,993.7
2017-04-21T07:00:52.110Z,993.7
2017-04-21T07:01:54.712Z,993.7
2017-04-21T07:02:57.209Z,993.8
2017-04-21T07:03:59.630Z,993.6
2017-04-21T07:05:02.857Z,993.6
2017-04-21T07:06:05.540Z,993.6
2017-04-21T07:07:08.030Z,993.6
2017-04-21T07:08:10.505Z,993.7
2017-04-21T07:09:13.094Z,993.6
2017-04-21T07:10:16.299Z,993.7
2017-04-21T07:11:19.610Z,993.7
2017-04-21T07:12:22.938Z,993.8
2017-04-21T07:13:26.113Z,993.8
2017-04-21T07:14:28.620Z,993.8
2017-04-21T07:15:31.077Z,993.7
2017-04-21T07:16:33.691Z,993.7
2017-04-21T07:17:36.330Z,993.6
2017-04-21T07:18:39.538Z,993.7
2017-04-21T07:19:42.040Z,993.7
2017-04-21T07:20:44.483Z,993.8
2017-04-21T07:21:47.774Z,993.8
2017-04-21T07:22:50.207Z,993.8
2017-04-21T07:23:52.745Z,993.7
2017-04-21T07:24:55.210Z,993.7
2017-04-21T07:25:57.666Z,993.7
2017-04-21T07:27:00.133Z,993.7
2017-04-21T07:28:03.259Z,993.7
2017-04-21T07:29:05.707Z,993.8
2017-04-21T07:30:09.177Z,993.7
2017-04-21T07:31:12.343Z,993.7
2017-04-21T07:32:14.881Z,993.6
2017-04-21T07:33:17.410Z,993.8
2017-04-21T07:34:19.908Z,993.7
2017-04-21T07:35:27.751Z,993.6
2017-04-21T07:36:31.115Z,993.6
2017-04-21T07:37:34.942Z,993.5
2017-04-21T07:38:39.294Z,993.6
2017-04-21T07:39:43.968Z,993.6
2017-04-21T07:40:50.485Z,993.6
2017-04-21T07:41:54.867Z,993.6
2017-04-21T07:42:59.288Z,993.4
2017-04-21T07:44:05.335Z,993.8
2017-04-21T07:45:10.464Z,993.8
2017-04-21T07:46:15.949Z,993.8
2017-04-21T07:47:21.467Z,993.6
2017-04-21T07:48:28.551Z,993.8
2017-04-21T07:49:33.878Z,993.8
2017-04-21T07:50:39.342Z,993.8
2017-04-21T07:51:43.521Z,993.9
2017-04-21T07:52:54.044Z,994
2017-04-21T07:54:02.076Z,993.9
2017-04-21T07:55:16.343Z,993.8
2017-04-21T07:56:31.840Z,993.9
2017-04-21T07:57:36.445Z,993.9
